createdAt,value
2018-01-12T00:01:56.269Z,33.80
2018-01-12T00:04:23.868Z,38.50
2018-01-12T00:06:51.780Z,35.25
2018-01-12T00:09:19.695Z,34.80
2018-01-12T00:11:47.197Z,36.60
2018-01-12T00:14:14.686Z,37.47
2018-01-12T00:16:42.188Z,37.10
2018-01-12T00:19:09.685Z,36.38
2018-01-12T00:21:37.203Z,37.85
2018-01-12T00:24:04.748Z,37.90
2018-01-12T00:26:32.256Z,37.42
2018-01-12T00:28:59.769Z,36.88
2018-01-12T00:31:27.265Z,37.80
2018-01-12T00:33:54.768Z,35.78
2018-01-12T00:36:22.265Z,35.35
2018-01-12T00:38:49.775Z,33.78
2018-01-12T00:41:17.264Z,33.38
2018-01-12T00:43:44.763Z,34.13
2018-01-12T00:46:12.253Z,35.65
2018-01-12T00:48:39.937Z,32.25
2018-01-12T00:51:07.429Z,31.70
2018-01-12T00:53:34.922Z,31.30
2018-01-12T00:56:02.430Z,32.03
2018-01-12T00:58:29.911Z,34.13
2018-01-12T01:00:57.415Z,33.10
2018-01-12T01:03:25.299Z,35.85
2018-01-12T01:05:53.266Z,32.20
2018-01-12T01:08:20.748Z,35.42
2018-01-12T01:10:48.251Z,34.00
2018-01-12T01:13:16.225Z,33.42
2018-01-12T01:15:43.740Z,33.42
2018-01-12T01:18:11.620Z,36.35
2018-01-12T01:20:39.105Z,34.50
2018-01-12T01:23:07.025Z,34.35
2018-01-12T01:25:34.543Z,34.05
2018-01-12T01:28:02.090Z,34.75
2018-01-12T01:30:29.583Z,34.97
2018-01-12T01:32:57.092Z,32.97
2018-01-12T01:35:24.586Z,36.65
2018-01-12T01:37:52.097Z,36.47
2018-01-12T01:40:20.081Z,35.08
2018-01-12T01:42:47.596Z,35.45
2018-01-12T01:45:15.088Z,38.42
2018-01-12T01:47:42.625Z,36.03
2018-01-12T01:50:10.137Z,35.60
2018-01-12T01:52:38.113Z,35.25
2018-01-12T01:55:05.625Z,37.58
2018-01-12T01:57:33.125Z,39.47
2018-01-12T02:00:00.646Z,43.15
2018-01-12T02:02:28.137Z,39.78
2018-01-12T02:04:55.724Z,42.65
2018-01-12T02:07:23.303Z,44.00
2018-01-12T02:09:51.979Z,43.50
2018-01-12T02:12:19.474Z,41.53
2018-01-12T02:14:46.968Z,40.58
2018-01-12T02:17:14.477Z,39.28
2018-01-12T02:19:42.076Z,39.47
2018-01-12T02:22:09.985Z,39.95
2018-01-12T02:24:37.527Z,41.70
2018-01-12T02:27:05.048Z,40.17
2018-01-12T02:29:32.522Z,39.75
2018-01-12T02:32:00.427Z,41.25
2018-01-12T02:34:27.971Z,44.50
2018-01-12T02:36:55.562Z,42.03
2018-01-12T02:39:23.053Z,41.90
2018-01-12T02:41:51.035Z,41.28
2018-01-12T02:44:18.550Z,38.13
2018-01-12T02:46:46.105Z,40.35
2018-01-12T02:49:13.609Z,40.50
2018-01-12T02:51:41.483Z,39.75
2018-01-12T02:54:08.980Z,42.33
2018-01-12T02:56:36.957Z,38.55
2018-01-12T02:59:04.541Z,39.13
2018-01-12T03:01:32.027Z,36.35
2018-01-12T03:03:59.613Z,37.65
2018-01-12T03:06:27.109Z,40.88
2018-01-12T03:08:54.671Z,39.75
2018-01-12T03:11:22.188Z,41.05
2018-01-12T03:13:49.684Z,37.92
2018-01-12T03:16:17.189Z,37.05
2018-01-12T03:18:44.680Z,38.67
2018-01-12T03:21:12.213Z,38.40
2018-01-12T03:23:40.187Z,39.33
2018-01-12T03:26:07.779Z,40.35
2018-01-12T03:28:35.271Z,40.97
2018-01-12T03:31:03.244Z,42.67
2018-01-12T03:33:30.737Z,41.00
2018-01-12T03:35:58.323Z,42.53
2018-01-12T03:38:25.883Z,39.95
2018-01-12T03:40:53.371Z,41.15
2018-01-12T03:43:20.881Z,40.47
2018-01-12T03:45:48.759Z,38.42
2018-01-12T03:48:16.352Z,40.55
2018-01-12T03:50:43.923Z,38.60
2018-01-12T03:53:11.432Z,38.97
2018-01-12T03:55:39.313Z,38.53
2018-01-12T03:58:06.807Z,41.30
2018-01-12T04:00:34.703Z,42.65
2018-01-12T04:03:02.580Z,44.50
2018-01-12T04:05:30.086Z,42.30
2018-01-12T04:07:57.630Z,45.10
2018-01-12T04:10:25.127Z,46.35
2018-01-12T04:12:52.607Z,40.72
2018-01-12T04:15:20.120Z,44.42
2018-01-12T04:17:47.598Z,46.58
2018-01-12T04:20:15.158Z,46.55
2018-01-12T04:22:42.660Z,44.15
2018-01-12T04:25:10.535Z,45.28
2018-01-12T04:27:38.117Z,42.45
2018-01-12T04:30:05.607Z,41.90
2018-01-12T04:32:33.188Z,44.20
2018-01-12T04:35:00.774Z,45.67
2018-01-12T04:37:28.287Z,46.53
2018-01-12T04:39:55.809Z,44.08
2018-01-12T04:42:23.324Z,46.37
2018-01-12T04:44:56.749Z,46.88
2018-01-12T04:47:24.536Z,47.17
2018-01-12T04:49:52.121Z,48.63
2018-01-12T04:52:19.625Z,47.03
2018-01-12T04:54:47.132Z,52.50
2018-01-12T04:57:14.620Z,46.20
2018-01-12T04:59:42.133Z,50.55
2018-01-12T05:02:09.736Z,45.42
2018-01-12T05:04:37.330Z,45.42
2018-01-12T05:07:05.326Z,47.58
2018-01-12T05:09:33.318Z,47.75
2018-01-12T05:12:00.896Z,46.17
2018-01-12T05:14:28.462Z,46.83
2018-01-12T05:16:55.962Z,46.45
2018-01-12T05:19:23.467Z,47.75
2018-01-12T05:21:51.392Z,46.45
2018-01-12T05:24:18.927Z,48.22
2018-01-12T05:26:46.427Z,48.92
2018-01-12T05:29:14.315Z,51.05
2018-01-12T05:31:42.292Z,48.03
2018-01-12T05:34:10.201Z,44.95
2018-01-12T05:36:38.109Z,45.25
2018-01-12T05:39:05.600Z,50.03
2018-01-12T05:41:33.168Z,46.35
2018-01-12T05:44:01.055Z,45.88
2018-01-12T05:46:28.581Z,43.85
2018-01-12T05:48:56.097Z,44.90
2018-01-12T05:51:23.600Z,45.12
2018-01-12T05:53:51.494Z,43.65
2018-01-12T05:56:19.474Z,46.78
2018-01-12T05:58:47.062Z,46.58
2018-01-12T06:01:26.306Z,48.45
2018-01-12T06:04:05.590Z,43.83
2018-01-12T06:06:33.577Z,43.53
2018-01-12T06:09:01.063Z,46.33
2018-01-12T06:11:28.635Z,45.95
2018-01-12T06:13:56.122Z,44.63
2018-01-12T06:16:23.615Z,42.28
2018-01-12T06:18:51.498Z,48.85
2018-01-12T06:21:19.000Z,45.30
2018-01-12T06:23:46.874Z,46.37
2018-01-12T06:26:14.380Z,48.70
2018-01-12T06:28:42.338Z,44.47
2018-01-12T06:31:09.835Z,48.47
2018-01-12T06:33:37.316Z,46.63
2018-01-12T06:36:04.819Z,47.28
2018-01-12T06:38:32.702Z,51.13
2018-01-12T06:41:00.674Z,48.08
2018-01-12T06:43:28.186Z,47.15
2018-01-12T06:45:56.063Z,48.28
2018-01-12T06:48:23.568Z,49.00
2018-01-12T06:50:51.072Z,50.58
2018-01-12T06:53:18.570Z,48.25
2018-01-12T06:55:46.057Z,47.60
2018-01-12T06:58:13.559Z,51.83
2018-01-12T07:00:41.550Z,49.85
2018-01-12T07:03:09.056Z,50.28
2018-01-12T07:05:36.622Z,48.58
2018-01-12T07:08:04.120Z,46.65
2018-01-12T07:10:31.600Z,48.45
2018-01-12T07:12:59.109Z,47.42
2018-01-12T07:15:26.987Z,50.50
2018-01-12T07:17:54.500Z,49.03
2018-01-12T07:20:33.872Z,46.40
2018-01-12T07:23:13.412Z,45.55
2018-01-12T07:25:41.316Z,42.80
2018-01-12T07:28:08.858Z,45.58
2018-01-12T07:30:36.340Z,50.42
2018-01-12T07:33:03.857Z,45.50
2018-01-12T07:35:31.739Z,48.95
2018-01-12T07:37:59.626Z,51.30
2018-01-12T07:40:27.117Z,45.90
2018-01-12T07:42:55.024Z,50.08
2018-01-12T07:45:22.507Z,54.90
2018-01-12T07:47:50.064Z,54.83
2018-01-12T07:50:17.561Z,50.22
2018-01-12T07:52:51.231Z,51.80
2018-01-12T07:55:18.748Z,49.33
2018-01-12T07:57:46.258Z,50.05
2018-01-12T08:00:14.140Z,50.65
2018-01-12T08:02:47.960Z,49.88
2018-01-12T08:05:15.560Z,49.28
2018-01-12T08:07:43.438Z,49.50
2018-01-12T08:10:10.938Z,48.08
2018-01-12T08:12:38.821Z,49.20
2018-01-12T08:15:06.331Z,46.97
2018-01-12T08:17:33.819Z,52.60
2018-01-12T08:20:01.372Z,53.67
2018-01-12T08:22:28.938Z,51.25
2018-01-12T08:24:56.439Z,53.33
2018-01-12T08:27:24.021Z,52.50
2018-01-12T08:29:51.595Z,51.20
2018-01-12T08:32:19.079Z,56.45
2018-01-12T08:34:46.578Z,49.42
2018-01-12T08:37:14.564Z,48.50
2018-01-12T08:39:42.071Z,40.10
2018-01-12T08:42:10.040Z,41.85
2018-01-12T08:44:37.581Z,46.22
2018-01-12T08:47:05.054Z,51.30
2018-01-12T08:49:32.550Z,46.35
2018-01-12T08:52:00.031Z,49.45
2018-01-12T08:54:27.538Z,53.25
2018-01-12T08:56:55.015Z,55.70
2018-01-12T08:59:22.528Z,51.65
2018-01-12T09:01:50.108Z,60.42
2018-01-12T09:04:17.620Z,55.72
2018-01-12T09:06:45.174Z,72.50
2018-01-12T09:09:12.685Z,89.03
2018-01-12T09:11:40.571Z,59.97
2018-01-12T09:14:20.430Z,58.80
2018-01-12T09:16:51.795Z,77.80
2018-01-12T09:19:27.231Z,66.85
2018-01-12T09:21:56.551Z,82.78
2018-01-12T09:24:24.426Z,67.55
2018-01-12T09:26:51.911Z,58.25
2018-01-12T09:29:19.415Z,58.03
2018-01-12T09:31:50.874Z,53.10
2018-01-12T09:34:30.357Z,53.87
2018-01-12T09:36:57.841Z,58.05
2018-01-12T09:39:37.344Z,57.25
2018-01-12T09:42:04.822Z,55.47
2018-01-12T09:44:32.341Z,50.30
2018-01-12T09:47:12.041Z,48.25
2018-01-12T09:49:47.219Z,46.90
2018-01-12T09:52:14.699Z,45.90
2018-01-12T09:54:42.188Z,48.35
2018-01-12T09:57:09.693Z,50.17
2018-01-12T09:59:43.176Z,50.97
2018-01-12T10:02:10.696Z,53.53
2018-01-12T10:04:38.279Z,48.72
2018-01-12T10:07:16.778Z,57.35
2018-01-12T10:09:48.137Z,53.55
2018-01-12T10:12:15.666Z,56.22
2018-01-12T10:14:43.166Z,51.33
2018-01-12T10:17:10.672Z,53.13
2018-01-12T10:20:01.246Z,37.50
2018-01-12T10:22:28.749Z,31.00
2018-01-12T10:24:56.330Z,38.58
2018-01-12T10:27:23.834Z,44.42
2018-01-12T10:29:57.320Z,47.85
2018-01-12T10:32:26.472Z,49.90
2018-01-12T10:35:05.769Z,52.05
2018-01-12T10:37:33.263Z,47.13
2018-01-12T10:40:01.572Z,45.10
2018-01-12T10:42:29.067Z,46.95
2018-01-12T10:44:56.564Z,45.83
2018-01-12T10:47:26.881Z,44.75
2018-01-12T10:52:50.709Z,45.92
2018-01-12T10:55:18.676Z,33.20
2018-01-12T10:57:46.159Z,34.80
2018-01-12T11:00:25.624Z,39.42
2018-01-12T11:02:53.099Z,38.40
2018-01-12T11:05:20.592Z,39.42
2018-01-12T11:07:48.434Z,39.25
2018-01-12T11:10:15.941Z,41.25
2018-01-12T11:12:43.428Z,38.88
2018-01-12T11:15:10.926Z,42.22
2018-01-12T11:17:38.403Z,44.83
2018-01-12T11:20:05.908Z,48.17
2018-01-12T11:22:33.793Z,51.40
2018-01-12T11:25:01.287Z,43.55
2018-01-12T11:27:29.185Z,48.00
2018-01-12T11:29:57.074Z,47.58
2018-01-12T11:32:24.960Z,44.42
2018-01-12T11:34:52.856Z,62.22
2018-01-12T11:37:20.833Z,50.75
2018-01-12T11:39:48.420Z,51.20
2018-01-12T11:42:15.910Z,53.20
2018-01-12T11:44:43.888Z,56.70
2018-01-12T11:47:11.367Z,57.20
2018-01-12T11:49:38.960Z,57.50
2018-01-12T11:52:06.477Z,53.67
2018-01-12T11:54:33.980Z,54.28
2018-01-12T11:57:01.474Z,52.90
2018-01-12T11:59:29.011Z,52.22
2018-01-12T12:01:56.897Z,56.85
2018-01-12T12:04:24.457Z,51.22
2018-01-12T12:06:51.957Z,50.15
2018-01-12T12:09:19.489Z,45.50
2018-01-12T12:11:47.020Z,47.38
2018-01-12T12:14:14.515Z,49.67
2018-01-12T12:16:42.490Z,54.25
2018-01-12T12:19:09.997Z,51.88
2018-01-12T12:21:37.876Z,50.38
2018-01-12T12:24:05.454Z,48.63
2018-01-12T12:26:32.930Z,45.15
2018-01-12T12:29:00.417Z,46.42
2018-01-12T12:31:28.003Z,46.03
2018-01-12T12:33:55.583Z,45.05
2018-01-12T12:36:23.104Z,39.80
2018-01-12T12:38:50.978Z,41.45
2018-01-12T12:41:18.896Z,41.03
2018-01-12T12:43:46.441Z,38.38
2018-01-12T12:46:13.951Z,41.60
2018-01-12T12:48:41.910Z,37.80
2018-01-12T12:51:09.525Z,38.92
2018-01-12T12:53:37.406Z,20.95
2018-01-12T12:56:04.970Z,35.70
2018-01-12T12:58:32.454Z,33.70
2018-01-12T13:00:59.954Z,37.45
2018-01-12T13:03:27.543Z,42.50
2018-01-12T13:05:55.127Z,43.55
2018-01-12T13:08:22.621Z,43.97
2018-01-12T13:10:50.512Z,45.60
2018-01-12T13:13:18.402Z,46.15
2018-01-12T13:15:46.299Z,45.08
2018-01-12T13:18:14.166Z,47.42
2018-01-12T13:20:41.758Z,48.22
2018-01-12T13:23:09.245Z,42.78
2018-01-12T13:25:36.820Z,43.63
2018-01-12T13:28:04.301Z,44.22
2018-01-12T13:30:31.880Z,43.00
2018-01-12T13:32:59.354Z,46.13
2018-01-12T13:35:26.955Z,50.80
2018-01-12T13:37:54.429Z,42.85
2018-01-12T13:40:21.932Z,44.97
2018-01-12T13:42:49.439Z,18.10
2018-01-12T13:45:16.943Z,34.85
2018-01-12T13:47:44.439Z,38.42
2018-01-12T13:50:11.960Z,36.15
2018-01-12T13:52:39.451Z,38.10
2018-01-12T13:55:07.336Z,38.30
2018-01-12T13:57:34.832Z,40.63
2018-01-12T14:00:02.706Z,40.40
2018-01-12T14:02:30.203Z,38.67
2018-01-12T14:04:58.188Z,40.05
2018-01-12T14:07:25.713Z,39.72
2018-01-12T14:09:53.648Z,37.70
2018-01-12T14:12:21.144Z,38.85
2018-01-12T14:14:48.722Z,39.05
2018-01-12T14:17:16.246Z,39.70
2018-01-12T14:19:43.746Z,41.22
2018-01-12T14:22:11.243Z,41.85
2018-01-12T14:24:38.719Z,37.30
2018-01-12T14:27:06.211Z,38.80
2018-01-12T14:29:33.682Z,39.55
2018-01-12T14:32:01.184Z,38.22
2018-01-12T14:34:28.672Z,39.42
2018-01-12T14:36:56.271Z,40.38
2018-01-12T14:39:23.746Z,38.90
2018-01-12T14:41:51.248Z,39.70
2018-01-12T14:44:18.815Z,41.40
2018-01-12T14:46:46.320Z,41.60
2018-01-12T14:49:13.799Z,42.67
2018-01-12T14:51:41.304Z,41.30
2018-01-12T14:54:09.262Z,40.33
2018-01-12T14:56:36.850Z,42.83
2018-01-12T14:59:04.328Z,45.10
2018-01-12T15:01:31.911Z,42.60
2018-01-12T15:03:59.412Z,40.58
2018-01-12T15:06:27.004Z,39.10
2018-01-12T15:08:54.489Z,44.15
2018-01-12T15:11:22.372Z,39.83
2018-01-12T15:13:49.956Z,39.47
2018-01-12T15:16:17.652Z,39.10
2018-01-12T15:18:45.629Z,39.90
2018-01-12T15:21:13.259Z,41.35
2018-01-12T15:23:40.750Z,40.58
2018-01-12T15:26:08.233Z,39.42
2018-01-12T15:28:35.761Z,37.45
2018-01-12T15:31:03.342Z,38.03
2018-01-12T15:33:30.844Z,39.60
2018-01-12T15:35:58.345Z,38.95
2018-01-12T15:38:26.321Z,38.15
2018-01-12T15:40:53.807Z,40.25
2018-01-12T15:43:21.298Z,39.65
2018-01-12T15:45:49.215Z,40.80
2018-01-12T15:48:16.707Z,39.83
2018-01-12T15:50:44.226Z,40.83
2018-01-12T15:53:11.732Z,41.35
2018-01-12T15:55:39.709Z,45.08
2018-01-12T15:58:07.212Z,40.00
2018-01-12T16:00:35.083Z,42.00
2018-01-12T16:03:02.578Z,43.10
2018-01-12T16:05:30.161Z,40.65
2018-01-12T16:07:57.664Z,42.90
2018-01-12T16:10:25.558Z,38.78
2018-01-12T16:12:53.520Z,38.95
2018-01-12T16:15:21.003Z,39.20
2018-01-12T16:17:48.533Z,42.72
2018-01-12T16:20:16.073Z,40.90
2018-01-12T16:22:43.668Z,40.05
2018-01-12T16:25:11.271Z,40.92
2018-01-12T16:27:39.162Z,41.83
2018-01-12T16:30:07.053Z,40.03
2018-01-12T16:32:35.077Z,37.45
2018-01-12T16:35:03.032Z,40.42
2018-01-12T16:37:30.604Z,39.88
2018-01-12T16:39:58.186Z,40.53
2018-01-12T16:42:25.681Z,41.13
2018-01-12T16:44:53.256Z,38.67
2018-01-12T16:47:20.734Z,40.75
2018-01-12T16:49:48.336Z,40.15
2018-01-12T16:52:16.017Z,38.45
2018-01-12T16:54:43.596Z,38.85
2018-01-12T16:57:11.075Z,40.72
2018-01-12T16:59:38.632Z,41.25
2018-01-12T17:02:06.476Z,41.17
2018-01-12T17:04:34.380Z,38.53
2018-01-12T17:07:02.266Z,39.80
2018-01-12T17:09:30.169Z,41.22
2018-01-12T17:11:57.662Z,39.70
2018-01-12T17:14:25.209Z,42.10
2018-01-12T17:16:52.702Z,42.08
2018-01-12T17:19:20.603Z,40.80
2018-01-12T17:21:48.095Z,39.55
2018-01-12T17:24:15.595Z,38.90
2018-01-12T17:26:43.071Z,40.12
2018-01-12T17:29:10.603Z,41.65
2018-01-12T17:31:38.093Z,39.63
2018-01-12T17:34:05.604Z,41.08
2018-01-12T17:36:33.490Z,43.00
2018-01-12T17:39:01.397Z,42.22
2018-01-12T17:41:28.880Z,40.78
2018-01-12T17:43:56.389Z,39.20
2018-01-12T17:46:23.874Z,36.67
2018-01-12T17:48:51.405Z,42.38
2018-01-12T17:51:18.891Z,41.63
2018-01-12T17:53:46.863Z,43.05
2018-01-12T17:56:14.344Z,42.20
2018-01-12T17:58:41.948Z,41.42
2018-01-12T18:01:09.837Z,42.30
2018-01-12T18:03:37.406Z,41.92
2018-01-12T18:06:04.913Z,42.80
2018-01-12T18:08:32.816Z,43.65
2018-01-12T18:11:00.706Z,42.42
2018-01-12T18:13:28.586Z,39.05
2018-01-12T18:15:56.183Z,39.30
2018-01-12T18:18:24.077Z,38.72
2018-01-12T18:20:52.073Z,41.05
2018-01-12T18:23:20.095Z,38.65
2018-01-12T18:25:47.748Z,39.92
2018-01-12T18:28:15.796Z,40.95
2018-01-12T18:30:43.400Z,43.78
2018-01-12T18:33:10.898Z,43.40
2018-01-12T18:35:38.409Z,42.90
2018-01-12T18:38:06.004Z,42.70
2018-01-12T18:40:33.501Z,44.90
2018-01-12T18:43:01.117Z,42.15
2018-01-12T18:45:28.707Z,45.38
2018-01-12T18:47:56.258Z,46.78
2018-01-12T18:50:23.779Z,47.80
2018-01-12T18:52:51.497Z,46.50
2018-01-12T18:55:18.990Z,46.13
2018-01-12T18:57:46.630Z,101.18
2018-01-12T19:00:14.145Z,47.50
2018-01-12T19:02:42.105Z,46.33
2018-01-12T19:05:09.624Z,49.55
2018-01-12T19:07:37.521Z,45.25
2018-01-12T19:10:05.492Z,45.55
2018-01-12T19:12:33.077Z,43.13
2018-01-12T19:15:00.583Z,41.40
2018-01-12T19:17:28.472Z,46.60
2018-01-12T19:19:56.647Z,41.42
2018-01-12T19:22:24.126Z,40.78
2018-01-12T19:24:51.616Z,43.08
2018-01-12T19:27:19.411Z,41.85
2018-01-12T19:29:47.001Z,39.88
2018-01-12T19:32:14.895Z,37.45
2018-01-12T19:34:43.003Z,36.60
2018-01-12T19:37:10.520Z,38.67
2018-01-12T19:39:38.049Z,40.65
2018-01-12T19:42:05.969Z,41.33
2018-01-12T19:44:33.543Z,39.88
2018-01-12T19:47:01.440Z,42.60
2018-01-12T19:49:29.498Z,40.65
2018-01-12T19:51:57.148Z,40.95
2018-01-12T19:54:24.688Z,37.83
2018-01-12T19:56:52.582Z,42.00
2018-01-12T19:59:20.508Z,39.92
2018-01-12T20:01:48.145Z,38.50
2018-01-12T20:04:15.676Z,40.42
2018-01-12T20:06:43.174Z,39.40
2018-01-12T20:09:10.733Z,37.55
2018-01-12T20:11:38.239Z,38.47
2018-01-12T20:14:05.835Z,40.25
2018-01-12T20:16:33.341Z,44.13
2018-01-12T20:19:00.944Z,43.10
2018-01-12T20:21:28.525Z,40.70
2018-01-12T20:23:56.160Z,41.90
2018-01-12T20:26:23.677Z,43.05
2018-01-12T20:28:51.388Z,41.10
2018-01-12T20:31:19.366Z,39.10
2018-01-12T20:33:47.036Z,41.45
2018-01-12T20:36:14.540Z,39.00
2018-01-12T20:38:42.210Z,40.80
2018-01-12T20:41:09.819Z,38.60
2018-01-12T20:43:37.443Z,39.85
2018-01-12T20:46:04.996Z,37.42
2018-01-12T20:48:33.039Z,37.40
2018-01-12T20:51:00.547Z,36.45
2018-01-12T20:53:28.346Z,38.53
2018-01-12T20:55:55.837Z,37.55
2018-01-12T20:58:23.575Z,37.78
2018-01-12T21:00:51.062Z,39.70
2018-01-12T21:03:18.677Z,38.95
2018-01-12T21:05:46.162Z,38.42
2018-01-12T21:08:13.784Z,40.03
2018-01-12T21:10:41.757Z,39.78
2018-01-12T21:13:09.277Z,39.22
2018-01-12T21:15:36.780Z,38.97
2018-01-12T21:18:04.443Z,41.40
2018-01-12T21:20:31.918Z,42.25
2018-01-12T21:22:59.974Z,43.05
2018-01-12T21:25:27.477Z,44.05
2018-01-12T21:27:54.977Z,40.95
2018-01-12T21:30:22.900Z,42.85
2018-01-12T21:32:50.437Z,45.55
2018-01-12T21:35:17.918Z,41.97
2018-01-12T21:37:45.443Z,42.42
2018-01-12T21:40:13.005Z,46.58
2018-01-12T21:42:40.909Z,47.28
2018-01-12T21:45:08.403Z,44.38
2018-01-12T21:47:36.081Z,45.65
2018-01-12T21:50:03.623Z,45.90
2018-01-12T21:52:31.136Z,45.75
2018-01-12T21:54:59.113Z,47.03
2018-01-12T21:57:27.027Z,49.72
2018-01-12T21:59:54.570Z,46.65
2018-01-12T22:02:22.102Z,46.67
2018-01-12T22:04:49.657Z,47.17
2018-01-12T22:07:17.181Z,45.47
2018-01-12T22:09:44.681Z,47.42
2018-01-12T22:12:12.183Z,47.20
2018-01-12T22:14:39.702Z,45.12
2018-01-12T22:17:07.578Z,46.17
2018-01-12T22:19:35.086Z,42.90
2018-01-12T22:22:03.045Z,44.85
2018-01-12T22:24:30.539Z,47.08
2018-01-12T22:26:58.131Z,41.85
2018-01-12T22:29:26.025Z,42.22
2018-01-12T22:31:53.499Z,42.15
2018-01-12T22:34:21.035Z,44.50
2018-01-12T22:36:48.565Z,44.60
2018-01-12T22:39:16.158Z,42.25
2018-01-12T22:41:43.735Z,42.28
2018-01-12T22:44:11.220Z,39.55
2018-01-12T22:46:38.724Z,40.85
2018-01-12T22:49:06.608Z,43.70
2018-01-12T22:51:34.508Z,39.92
2018-01-12T22:54:02.395Z,43.28
2018-01-12T22:56:30.295Z,42.30
2018-01-12T22:58:58.190Z,47.03
2018-01-12T23:01:26.161Z,45.10
2018-01-12T23:03:53.731Z,41.25
2018-01-12T23:06:21.328Z,39.55
2018-01-12T23:08:48.826Z,45.28
2018-01-12T23:11:16.808Z,49.15
2018-01-12T23:13:44.400Z,46.08
2018-01-12T23:16:11.981Z,45.63
2018-01-12T23:18:39.564Z,43.78
2018-01-12T23:21:07.148Z,44.28
2018-01-12T23:23:34.660Z,43.17
2018-01-12T23:26:02.543Z,42.15
2018-01-12T23:28:30.435Z,42.05
2018-01-12T23:30:58.402Z,39.33
2018-01-12T23:33:25.909Z,41.42
2018-01-12T23:35:53.778Z,40.53
2018-01-12T23:38:21.300Z,41.00
2018-01-12T23:40:48.862Z,39.40
2018-01-12T23:43:16.749Z,40.03
2018-01-12T23:45:44.268Z,36.65
2018-01-12T23:48:11.765Z,37.50
2018-01-12T23:50:39.280Z,35.60
2018-01-12T23:53:06.772Z,35.90
2018-01-12T23:55:34.365Z,35.15
2018-01-12T23:58:01.851Z,34.60
